createdAt,value
2023-04-13T00:03:12.162Z,53.30
2023-04-13T00:13:15.301Z,52.47
2023-04-13T00:23:17.968Z,52.44
2023-04-13T00:33:20.324Z,53.77
2023-04-13T00:43:22.405Z,52.74
2023-04-13T00:53:24.548Z,51.38
2023-04-13T01:03:27.195Z,55.51
2023-04-13T01:13:35.133Z,58.15
2023-04-13T01:23:57.288Z,57.47
2023-04-13T01:34:01.350Z,58.91
2023-04-13T01:44:03.889Z,60.33
2023-04-13T01:54:17.626Z,59.05
2023-04-13T02:04:22.576Z,58.05
2023-04-13T02:14:27.124Z,58.31
2023-04-13T02:24:30.191Z,58.97
2023-04-13T02:34:33.433Z,58.23
2023-04-13T02:44:36.264Z,58.26
2023-04-13T02:54:38.507Z,57.10
2023-04-13T03:04:40.903Z,56.84
2023-04-13T03:14:43.423Z,58.67
2023-04-13T03:24:46.692Z,58.15
2023-04-13T03:34:55.479Z,58.73
2023-04-13T03:44:57.764Z,60.46
2023-04-13T03:55:00.504Z,60.58
2023-04-13T04:05:06.875Z,61.14
2023-04-13T04:15:10.358Z,59.58
2023-04-13T04:25:22.271Z,58.94
2023-04-13T04:35:33.027Z,58.06
2023-04-13T04:45:36.331Z,58.83
2023-04-13T04:55:39.786Z,61.21
2023-04-13T05:05:45.967Z,61.06
2023-04-13T05:15:54.402Z,62.57
2023-04-13T05:25:56.701Z,60.51
2023-04-13T05:36:01.336Z,61.98
2023-04-13T05:46:03.552Z,60.93
2023-04-13T05:56:07.887Z,61.75
2023-04-13T06:06:12.973Z,61.41
2023-04-13T06:16:15.526Z,60.76
2023-04-13T06:26:19.395Z,60.73
2023-04-13T06:36:27.233Z,59.40
2023-04-13T06:46:31.410Z,59.12
2023-04-13T06:56:38.887Z,57.54
2023-04-13T07:06:41.486Z,55.45
2023-04-13T07:16:43.730Z,56.86
2023-04-13T07:26:46.145Z,54.80
2023-04-13T07:36:48.522Z,53.91
2023-04-13T07:46:57.200Z,52.93
2023-04-13T07:57:02.882Z,51.76
2023-04-13T08:07:07.282Z,52.18
2023-04-13T08:17:10.182Z,52.41
2023-04-13T08:27:13.691Z,52.90
2023-04-13T08:37:16.256Z,52.18
2023-04-13T08:47:21.453Z,52.48
2023-04-13T08:57:24.261Z,53.68
2023-04-13T09:07:30.752Z,54.20
2023-04-13T09:17:37.375Z,53.95
2023-04-13T09:27:40.358Z,53.24
2023-04-13T09:37:44.430Z,51.57
2023-04-13T09:47:47.689Z,57.19
2023-04-13T09:57:49.782Z,58.84
2023-04-13T10:07:51.900Z,56.19
2023-04-13T10:18:12.820Z,55.48
2023-04-13T10:28:15.022Z,52.10
2023-04-13T10:38:17.132Z,49.35
2023-04-13T10:48:21.617Z,49.52
2023-04-13T10:58:23.880Z,49.85
2023-04-13T11:08:27.793Z,49.45
2023-04-13T11:18:30.012Z,49.94
2023-04-13T11:28:43.435Z,49.23
2023-04-13T11:38:48.034Z,48.37
2023-04-13T11:48:50.629Z,47.90
2023-04-13T11:58:53.280Z,47.10
2023-04-13T12:09:10.309Z,49.34
2023-04-13T12:29:24.528Z,43.04
2023-04-13T12:39:27.170Z,41.18
2023-04-13T12:49:29.916Z,39.14
2023-04-13T12:59:32.208Z,37.87
2023-04-13T13:09:34.990Z,39.70
2023-04-13T13:19:37.199Z,39.82
2023-04-13T13:29:39.628Z,38.19
2023-04-13T13:39:42.721Z,40.32
2023-04-13T13:49:44.922Z,40.11
2023-04-13T14:00:19.722Z,40.12
2023-04-13T14:10:21.929Z,38.35
2023-04-13T14:20:24.039Z,37.63
2023-04-13T14:30:27.825Z,35.65
2023-04-13T14:40:31.419Z,34.35
2023-04-13T14:50:33.953Z,31.45
2023-04-13T15:00:39.330Z,31.30
2023-04-13T15:10:42.365Z,35.00
2023-04-13T15:20:44.693Z,33.98
2023-04-13T15:30:46.918Z,33.35
2023-04-13T15:40:49.263Z,33.05
2023-04-13T15:50:57.976Z,30.89
2023-04-13T16:01:09.380Z,31.33
2023-04-13T16:11:11.809Z,32.64
2023-04-13T16:21:19.035Z,31.81
2023-04-13T16:31:21.376Z,32.27
2023-04-13T16:41:23.525Z,32.20
2023-04-13T16:51:27.050Z,34.11
2023-04-13T17:01:30.927Z,34.13
2023-04-13T17:11:33.147Z,32.90
2023-04-13T17:21:35.523Z,31.50
2023-04-13T17:31:37.720Z,33.20
2023-04-13T17:41:41.600Z,32.04
2023-04-13T17:51:48.398Z,32.43
2023-04-13T18:01:54.255Z,31.86
2023-04-13T18:11:56.802Z,32.35
2023-04-13T18:21:59.169Z,34.60
2023-04-13T18:32:01.395Z,36.52
2023-04-13T18:42:03.772Z,38.61
2023-04-13T18:52:06.220Z,39.19
2023-04-13T19:02:08.586Z,40.28
2023-04-13T19:12:10.865Z,40.09
2023-04-13T19:22:13.075Z,42.43
2023-04-13T19:32:16.881Z,42.82
2023-04-13T19:42:19.287Z,42.76
2023-04-13T19:52:21.531Z,39.01
2023-04-13T20:02:23.775Z,39.36
2023-04-13T20:12:26.010Z,42.02
2023-04-13T20:22:28.525Z,41.86
2023-04-13T20:32:32.178Z,41.45
2023-04-13T20:42:34.336Z,43.33
2023-04-13T20:52:36.920Z,45.32
2023-04-13T21:02:39.987Z,43.52
2023-04-13T21:12:42.258Z,44.72
2023-04-13T21:22:44.314Z,44.76
2023-04-13T21:32:46.422Z,43.75
2023-04-13T21:42:49.570Z,42.96
2023-04-13T21:52:51.999Z,41.05
2023-04-13T22:02:55.276Z,40.58
2023-04-13T22:12:57.524Z,41.57
2023-04-13T22:22:59.698Z,41.23
2023-04-13T22:33:01.911Z,42.61
2023-04-13T22:43:04.241Z,41.95
2023-04-13T22:53:06.452Z,42.34
2023-04-13T23:03:08.763Z,42.60
2023-04-13T23:13:10.962Z,42.23
2023-04-13T23:23:13.129Z,44.38
2023-04-13T23:33:15.796Z,42.37
2023-04-13T23:43:17.943Z,44.74
2023-04-13T23:53:20.046Z,42.38
